Terminal Aerodrome Forecast
Issued by NWS Buffalo, NY

Home | Current Version | Previous Version | Text Only | Print | Product List | Glossary On
Versions: 1 2 3 4 5 6 7 8 9 10 11 12 13 14 15 16 17 18 19 20 21 22 23 24 25 26 27 28 29
000
FTUS41 KBUF 281700
TAFROC
TAF
KROC 281734Z 2818/2918 29012KT 5SM -SHSN SCT020 BKN040
     FM282100 26007KT P6SM SCT050 BKN120
     FM290800 17004KT P6SM BKN050 BKN080=

USA.gov is the U.S. government's official web portal to all federal, state and local government web resources and services.